Terminal Aerodrome Forecast
Issued by NWS

Home | Current Version | Previous Version | Text Only | Print | Product List | Glossary On
Versions: 1 2 3 4 5 6 7 8 9 10 11 12 13 14 15 16 17 18 19 20
000
FTUS42 KFFC 222300
TAFRYY
TAF
KRYY 222328Z 2300/2324 00000KT P6SM FEW250
     FM231500 32005KT P6SM FEW035
     FM231700 31006KT P6SM SCT045 PROB30 2318/2322 -TSRA BKN035CB
      AMD NOT SKED 2304/2312=

USA.gov is the U.S. government's official web portal to all federal, state and local government web resources and services.